Time;durP1;ratioP1;P1;durP2;ratioP2;P2;SDS_P1;SDS_P2;PMS_P1;PMS_P2;Temp;Humidity;BMP_temperature;BMP_pressure;BME280_temperature;BME280_humidity;BME280_pressure;Samples;Min_cycle;Max_cycle;Signal;HPM_P1;HPM_P2
2023/08/09 00:01:46;;;;;;;;;;;;;;;23.16;100.00;101093.34;5095140;28;19925;-59
2023/08/09 00:04:12;;;;;;;;;;;;;;;23.03;100.00;101085.75;5095076;28;19924;-59
2023/08/09 00:06:37;;;;;;;;;;;;;;;23.19;100.00;101092.84;5095236;28;19938;-56
2023/08/09 00:09:03;;;;;;;;;;;;;;;22.84;100.00;101093.66;5095150;28;19973;-61
2023/08/09 00:11:28;;;;;;;;;;;;;;;22.77;100.00;101096.66;5094806;28;19943;-56
2023/08/09 00:13:54;;;;;;;;;;;;;;;22.85;100.00;101098.03;5095123;28;20272;-58
2023/08/09 00:16:19;;;;;;;;;;;;;;;23.10;100.00;101091.72;5094941;28;19939;-59
2023/08/09 00:18:45;;;;;;;;;;;;;;;22.94;100.00;101104.56;5095571;28;19923;-59
2023/08/09 00:21:10;;;;;;;;;;;;;;;22.94;100.00;101092.81;5103300;28;19916;-58
2023/08/09 00:23:36;;;;;;;;;;;;;;;22.95;100.00;101095.28;5095043;28;19920;-58
2023/08/09 00:26:01;;;;;;;;;;;;;;;23.01;100.00;101096.91;5095033;28;19952;-58
2023/08/09 00:28:27;;;;;;;;;;;;;;;23.06;100.00;101102.38;5094980;28;19928;-59
2023/08/09 00:30:52;;;;;;;;;;;;;;;23.14;100.00;101098.28;5115784;28;19917;-57
2023/08/09 00:33:18;;;;;;;;;;;;;;;22.99;100.00;101099.09;5094883;28;19921;-59
2023/08/09 00:35:43;;;;;;;;;;;;;;;22.99;100.00;101101.84;5077649;28;19917;-60
2023/08/09 00:38:09;;;;;;;;;;;;;;;23.08;100.00;101104.03;5111000;28;19926;-58
2023/08/09 00:40:34;;;;;;;;;;;;;;;22.95;100.00;101111.66;5096248;28;19917;-58
2023/08/09 00:43:00;;;;;;;;;;;;;;;23.10;100.00;101110.81;5094633;28;19924;-58
2023/08/09 00:45:26;;;;;;;;;;;;;;;23.03;100.00;101113.81;5110952;28;19916;-59
2023/08/09 00:47:52;;;;;;;;;;;;;;;23.07;100.00;101122.28;5114722;28;19941;-59
2023/08/09 00:50:17;;;;;;;;;;;;;;;22.37;100.00;101120.78;5094729;28;19920;-57
2023/08/09 00:52:43;;;;;;;;;;;;;;;22.55;100.00;101124.97;5110734;28;19916;-59
2023/08/09 00:55:09;;;;;;;;;;;;;;;22.48;100.00;101125.22;5094923;28;19939;-57
2023/08/09 00:57:34;;;;;;;;;;;;;;;22.35;100.00;101125.69;5095593;28;19916;-59
2023/08/09 01:00:00;;;;;;;;;;;;;;;22.47;100.00;101122.75;5097771;28;19927;-58
2023/08/09 01:02:26;;;;;;;;;;;;;;;22.51;100.00;101123.06;5099602;28;19923;-57
2023/08/09 01:04:51;;;;;;;;;;;;;;;22.51;100.00;101123.88;5094660;28;19916;-57
2023/08/09 01:07:20;;;;;;;;;;;;;;;22.34;100.00;101122.16;5094488;28;19999;-57
2023/08/09 01:09:53;;;;;;;;;;;;;;;22.53;100.00;101127.16;5110628;28;19917;-59
2023/08/09 01:12:22;;;;;;;;;;;;;;;22.24;100.00;101129.50;5110591;28;19952;-57
2023/08/09 01:14:51;;;;;;;;;;;;;;;22.51;100.00;101129.34;5110796;28;19943;-58
2023/08/09 01:17:17;;;;;;;;;;;;;;;22.37;100.00;101128.97;5110325;28;19916;-59
2023/08/09 01:19:51;;;;;;;;;;;;;;;22.40;100.00;101123.00;5085959;28;19923;-56
2023/08/09 01:22:20;;;;;;;;;;;;;;;22.19;100.00;101133.84;5114276;28;19917;-58
2023/08/09 01:24:45;;;;;;;;;;;;;;;22.17;100.00;101129.72;5102378;28;19916;-55
2023/08/09 01:27:12;;;;;;;;;;;;;;;22.46;100.00;101135.59;5097781;28;19938;-55
2023/08/09 01:29:38;;;;;;;;;;;;;;;22.81;100.00;101138.63;5103362;28;19944;-57
2023/08/09 01:32:04;;;;;;;;;;;;;;;22.74;100.00;101143.53;5097721;28;19943;-58
2023/08/09 01:34:31;;;;;;;;;;;;;;;23.03;100.00;101140.28;5114026;28;19942;-56
2023/08/09 01:36:58;;;;;;;;;;;;;;;22.76;100.00;101142.16;5113788;28;19992;-55
2023/08/09 01:39:29;;;;;;;;;;;;;;;22.99;100.00;101133.75;5097745;28;19983;-59
2023/08/09 01:41:55;;;;;;;;;;;;;;;23.30;100.00;101129.13;5113836;28;19939;-57
2023/08/09 01:44:23;;;;;;;;;;;;;;;23.32;100.00;101126.94;5113760;28;20023;-58
2023/08/09 01:46:49;;;;;;;;;;;;;;;23.30;100.00;101137.31;5080100;28;19976;-56
2023/08/09 01:49:15;;;;;;;;;;;;;;;23.42;100.00;101142.50;5079933;28;19923;-58
2023/08/09 01:51:41;;;;;;;;;;;;;;;23.19;100.00;101139.22;5097438;28;19955;-55
2023/08/09 01:54:07;;;;;;;;;;;;;;;23.42;100.00;101144.38;5113826;28;19917;-58
2023/08/09 01:56:33;;;;;;;;;;;;;;;23.06;100.00;101142.47;5097257;28;19938;-58
2023/08/09 01:58:59;;;;;;;;;;;;;;;23.24;100.00;101146.56;5106128;28;19971;-57
2023/08/09 02:01:24;;;;;;;;;;;;;;;23.30;100.00;101147.41;5113795;28;19916;-56
2023/08/09 02:03:51;;;;;;;;;;;;;;;23.33;100.00;101147.69;5120102;28;19924;-57
2023/08/09 02:06:16;;;;;;;;;;;;;;;23.05;100.00;101166.19;5080397;28;19924;-57
2023/08/09 02:08:42;;;;;;;;;;;;;;;22.86;100.00;101157.72;5118554;28;19948;-57
2023/08/09 02:11:08;;;;;;;;;;;;;;;22.68;100.00;101156.34;5098029;28;19920;-59
2023/08/09 02:13:34;;;;;;;;;;;;;;;22.70;100.00;101158.78;5079649;28;20003;-58
2023/08/09 02:16:00;;;;;;;;;;;;;;;22.20;100.00;101151.81;5079249;28;19920;-58
2023/08/09 02:18:26;;;;;;;;;;;;;;;21.92;100.00;101161.22;5115250;28;19923;-58
2023/08/09 02:20:52;;;;;;;;;;;;;;;22.20;100.00;101159.16;5097830;28;19980;-58
2023/08/09 02:23:18;;;;;;;;;;;;;;;21.83;100.00;101169.06;5096777;28;20066;-54
2023/08/09 02:25:44;;;;;;;;;;;;;;;21.75;100.00;101167.66;5096821;28;19921;-56
2023/08/09 02:28:10;;;;;;;;;;;;;;;21.88;100.00;101160.91;5096944;28;19916;-54
2023/08/09 02:30:36;;;;;;;;;;;;;;;21.82;100.00;101170.13;5096933;28;19917;-53
2023/08/09 02:33:02;;;;;;;;;;;;;;;22.01;100.00;101169.69;5103933;28;19938;-56
2023/08/09 02:35:31;;;;;;;;;;;;;;;21.99;100.00;101171.88;5078245;28;19920;-56
2023/08/09 02:37:56;;;;;;;;;;;;;;;21.94;100.00;101177.28;5096719;28;20003;-56
2023/08/09 02:40:23;;;;;;;;;;;;;;;22.00;100.00;101177.03;5106825;28;19916;-56
2023/08/09 02:42:48;;;;;;;;;;;;;;;22.00;100.00;101178.97;5112610;28;19992;-58
2023/08/09 02:45:14;;;;;;;;;;;;;;;22.15;100.00;101181.75;5078744;28;19923;-58
2023/08/09 02:47:40;;;;;;;;;;;;;;;22.03;100.00;101181.16;5096324;28;19916;-58
2023/08/09 02:50:06;;;;;;;;;;;;;;;21.96;100.00;101186.03;5103048;28;19927;-58
2023/08/09 02:52:31;;;;;;;;;;;;;;;21.94;100.00;101183.53;5096478;28;19948;-58
2023/08/09 02:54:56;;;;;;;;;;;;;;;22.23;100.00;101198.69;5096261;28;19916;-55
2023/08/09 02:57:22;;;;;;;;;;;;;;;22.21;100.00;101196.19;5096235;28;19923;-56
2023/08/09 02:59:47;;;;;;;;;;;;;;;22.44;100.00;101207.75;5099648;28;19991;-56
2023/08/09 03:02:13;;;;;;;;;;;;;;;22.64;100.00;101198.84;5089285;28;19916;-57
2023/08/09 03:04:39;;;;;;;;;;;;;;;22.55;100.00;101197.72;5078628;28;19924;-57
2023/08/09 03:07:05;;;;;;;;;;;;;;;22.54;100.00;101193.38;5078601;28;19920;-57
2023/08/09 03:09:31;;;;;;;;;;;;;;;22.54;100.00;101187.91;5078529;28;19916;-57
2023/08/09 03:11:57;;;;;;;;;;;;;;;22.52;100.00;101188.19;5078406;28;19932;-59
2023/08/09 03:14:24;;;;;;;;;;;;;;;22.17;100.00;101195.09;5111870;28;19916;-56
2023/08/09 03:16:49;;;;;;;;;;;;;;;21.43;100.00;101192.16;5112107;28;19943;-55
2023/08/09 03:19:15;;;;;;;;;;;;;;;21.91;100.00;101192.25;5078215;28;19923;-55
2023/08/09 03:21:44;;;;;;;;;;;;;;;21.99;100.00;101193.66;5116568;28;19973;-52
2023/08/09 03:24:10;;;;;;;;;;;;;;;21.73;100.00;101202.47;5078731;28;19916;-58
2023/08/09 03:26:35;;;;;;;;;;;;;;;21.86;100.00;101197.66;5112092;28;19940;-58
2023/08/09 03:29:02;;;;;;;;;;;;;;;22.23;100.00;101206.84;5112772;28;19912;-59
2023/08/09 03:31:28;;;;;;;;;;;;;;;22.55;100.00;101211.34;5104782;28;19920;-53
2023/08/09 03:33:55;;;;;;;;;;;;;;;22.45;100.00;101214.81;5078419;28;19916;-55
2023/08/09 03:36:21;;;;;;;;;;;;;;;22.32;100.00;101213.41;5077996;28;19946;-53
2023/08/09 03:38:46;;;;;;;;;;;;;;;21.95;100.00;101214.31;5095543;28;19927;-54
2023/08/09 03:41:12;;;;;;;;;;;;;;;21.97;100.00;101217.59;5082956;28;19926;-57
2023/08/09 03:43:37;;;;;;;;;;;;;;;21.73;100.00;101220.72;5108021;28;19924;-56
2023/08/09 03:46:04;;;;;;;;;;;;;;;21.82;100.00;101215.63;5094983;28;19916;-58
2023/08/09 03:48:30;;;;;;;;;;;;;;;21.82;100.00;101219.13;5095439;28;19972;-56
2023/08/09 03:50:56;;;;;;;;;;;;;;;21.89;100.00;101227.88;5095459;28;19991;-57
2023/08/09 03:53:22;;;;;;;;;;;;;;;21.90;100.00;101229.53;5104895;28;19900;-53
2023/08/09 03:55:48;;;;;;;;;;;;;;;22.12;100.00;101230.47;5111430;28;19917;-55
2023/08/09 03:58:14;;;;;;;;;;;;;;;22.23;100.00;101236.81;5077629;28;19927;-55
2023/08/09 04:00:40;;;;;;;;;;;;;;;21.82;100.00;101242.84;5089784;28;19946;-56
2023/08/09 04:03:05;;;;;;;;;;;;;;;21.48;100.00;101238.47;5101986;28;19927;-52
2023/08/09 04:05:31;;;;;;;;;;;;;;;21.32;100.00;101240.22;5111391;28;19912;-56
2023/08/09 04:08:00;;;;;;;;;;;;;;;21.55;100.00;101235.50;5077622;28;19958;-56
2023/08/09 04:10:26;;;;;;;;;;;;;;;21.23;100.00;101248.03;5103950;28;19916;-57
2023/08/09 04:12:52;;;;;;;;;;;;;;;21.67;100.00;101246.25;5088118;28;19917;-53
2023/08/09 04:15:18;;;;;;;;;;;;;;;21.59;100.00;101247.53;5088118;28;19988;-54
2023/08/09 04:17:44;;;;;;;;;;;;;;;21.33;100.00;101250.84;5095127;28;19921;-57
2023/08/09 04:20:11;;;;;;;;;;;;;;;21.32;100.00;101251.09;5101184;28;19951;-58
2023/08/09 04:22:37;;;;;;;;;;;;;;;21.35;100.00;101251.41;5095324;28;19920;-57
2023/08/09 04:25:04;;;;;;;;;;;;;;;21.41;100.00;101265.88;5095045;28;19931;-55
2023/08/09 04:27:31;;;;;;;;;;;;;;;21.58;100.00;101254.88;5094972;28;19968;-56
2023/08/09 04:29:56;;;;;;;;;;;;;;;21.82;100.00;101254.53;5094897;28;19923;-56
2023/08/09 04:32:22;;;;;;;;;;;;;;;21.96;100.00;101262.25;5094937;28;19917;-52
2023/08/09 04:34:47;;;;;;;;;;;;;;;21.66;100.00;101255.47;5095142;28;19927;-57
2023/08/09 04:37:13;;;;;;;;;;;;;;;22.20;100.00;101268.94;5094853;28;19988;-56
2023/08/09 04:39:38;;;;;;;;;;;;;;;22.40;100.00;101267.41;5095002;28;19916;-56
2023/08/09 04:42:04;;;;;;;;;;;;;;;22.30;100.00;101264.63;5081373;28;19916;-55
2023/08/09 04:44:30;;;;;;;;;;;;;;;22.29;100.00;101268.44;5094726;28;19940;-55
2023/08/09 04:46:56;;;;;;;;;;;;;;;21.81;100.00;101274.66;5094724;28;19917;-52
2023/08/09 04:49:21;;;;;;;;;;;;;;;21.89;100.00;101268.72;5094722;28;19948;-56
2023/08/09 04:51:47;;;;;;;;;;;;;;;21.96;100.00;101271.22;5094688;28;19928;-56
2023/08/09 04:54:12;;;;;;;;;;;;;;;22.49;100.00;101274.00;5098801;28;19922;-54
2023/08/09 04:56:38;;;;;;;;;;;;;;;22.46;100.00;101273.69;5100212;28;19920;-56
2023/08/09 04:59:03;;;;;;;;;;;;;;;22.33;100.00;101283.16;5098393;28;19917;-54
2023/08/09 05:01:29;;;;;;;;;;;;;;;22.34;100.00;101287.53;5098315;28;19948;-52
2023/08/09 05:03:54;;;;;;;;;;;;;;;21.89;100.00;101292.44;5098295;28;19921;-56
2023/08/09 05:06:20;;;;;;;;;;;;;;;22.46;100.00;101290.91;5098169;28;19946;-54
2023/08/09 05:08:45;;;;;;;;;;;;;;;22.46;100.00;101301.81;5098289;28;19931;-57
2023/08/09 05:11:11;;;;;;;;;;;;;;;22.24;100.00;101296.44;5101372;28;19916;-54
2023/08/09 05:13:36;;;;;;;;;;;;;;;22.48;100.00;101287.91;5108945;28;19951;-55
2023/08/09 05:16:02;;;;;;;;;;;;;;;22.57;100.00;101296.38;5097778;28;19920;-58
2023/08/09 05:18:27;;;;;;;;;;;;;;;22.71;100.00;101297.56;5098029;28;19989;-57
2023/08/09 05:20:53;;;;;;;;;;;;;;;22.09;100.00;101291.72;5098186;28;19930;-59
2023/08/09 05:23:18;;;;;;;;;;;;;;;21.72;100.00;101303.47;5097763;28;19942;-58
2023/08/09 05:25:44;;;;;;;;;;;;;;;21.88;100.00;101299.75;5097897;28;19916;-56
2023/08/09 05:28:09;;;;;;;;;;;;;;;21.58;100.00;101297.59;5097964;28;19916;-55
2023/08/09 05:30:35;;;;;;;;;;;;;;;21.56;100.00;101305.16;5098011;28;19979;-58
2023/08/09 05:33:00;;;;;;;;;;;;;;;21.94;100.00;101305.25;5101633;28;19920;-57
2023/08/09 05:35:29;;;;;;;;;;;;;;;21.89;100.00;101304.13;5102237;28;19916;-54
2023/08/09 05:37:54;;;;;;;;;;;;;;;22.39;100.00;101298.47;5097625;28;19917;-59
2023/08/09 05:40:20;;;;;;;;;;;;;;;23.11;100.00;101318.97;5097619;28;19916;-59
2023/08/09 05:42:45;;;;;;;;;;;;;;;22.89;100.00;101322.72;5109595;28;19932;-58
2023/08/09 05:45:11;;;;;;;;;;;;;;;23.25;100.00;101331.00;5101704;28;19916;-57
2023/08/09 05:47:36;;;;;;;;;;;;;;;23.38;100.00;101329.66;5106722;28;19964;-58
2023/08/09 05:50:02;;;;;;;;;;;;;;;23.27;100.00;101326.09;5099429;28;19923;-58
2023/08/09 05:52:28;;;;;;;;;;;;;;;23.12;100.00;101320.59;5096852;28;19920;-58
2023/08/09 05:54:53;;;;;;;;;;;;;;;22.64;100.00;101321.50;5097214;28;19996;-57
2023/08/09 05:57:18;;;;;;;;;;;;;;;23.04;100.00;101333.66;5096666;28;19979;-58
2023/08/09 05:59:45;;;;;;;;;;;;;;;23.11;100.00;101340.78;5097080;28;19917;-57
2023/08/09 06:02:10;;;;;;;;;;;;;;;23.22;100.00;101339.72;5080941;28;19956;-56
2023/08/09 06:04:36;;;;;;;;;;;;;;;23.54;100.00;101336.00;5097034;28;19921;-56
2023/08/09 06:07:02;;;;;;;;;;;;;;;23.62;100.00;101346.38;5090982;28;19917;-57
2023/08/09 06:09:28;;;;;;;;;;;;;;;23.96;100.00;101346.91;5100671;28;19930;-57
2023/08/09 06:11:54;;;;;;;;;;;;;;;23.89;100.00;101350.75;5098148;28;19982;-55
2023/08/09 06:14:19;;;;;;;;;;;;;;;23.77;100.00;101353.75;5096825;28;19924;-54
2023/08/09 06:16:47;;;;;;;;;;;;;;;23.25;100.00;101346.53;5097641;28;20345;-57
2023/08/09 06:19:13;;;;;;;;;;;;;;;23.63;100.00;101356.19;5096595;28;19916;-57
2023/08/09 06:21:39;;;;;;;;;;;;;;;23.75;100.00;101352.38;5102865;28;19964;-54
2023/08/09 06:24:05;;;;;;;;;;;;;;;23.37;100.00;101349.06;5098085;28;19955;-53
2023/08/09 06:26:34;;;;;;;;;;;;;;;23.42;100.00;101354.53;5094962;28;19916;-57
2023/08/09 06:29:00;;;;;;;;;;;;;;;23.55;100.00;101359.47;5096253;28;19927;-55
2023/08/09 06:31:26;;;;;;;;;;;;;;;23.15;100.00;101366.44;5094564;28;19952;-55
2023/08/09 06:33:52;;;;;;;;;;;;;;;;;;5084131;28;19920;-58
2023/08/09 06:36:18;;;;;;;;;;;;;;;22.40;100.00;101362.78;5089393;28;19920;-56
2023/08/09 06:38:43;;;;;;;;;;;;;;;22.82;100.00;101368.47;5094157;28;19939;-55
2023/08/09 06:41:09;;;;;;;;;;;;;;;22.92;100.00;101363.06;5090904;28;19965;-52
2023/08/09 06:43:35;;;;;;;;;;;;;;;22.76;100.00;101368.44;5108732;28;19920;-54
2023/08/09 06:46:01;;;;;;;;;;;;;;;22.82;100.00;101363.84;5092948;28;19916;-53
2023/08/09 06:48:29;;;;;;;;;;;;;;;23.11;100.00;101376.25;5100476;28;19928;-52
2023/08/09 06:50:57;;;;;;;;;;;;;;;23.39;100.00;101374.16;5096271;28;19939;-53
2023/08/09 06:53:23;;;;;;;;;;;;;;;23.51;100.00;101380.19;5098848;28;19916;-57
2023/08/09 06:55:49;;;;;;;;;;;;;;;23.48;100.00;101381.56;5095840;28;19917;-57
2023/08/09 06:58:14;;;;;;;;;;;;;;;23.65;100.00;101387.88;5095620;28;19916;-57
2023/08/09 07:00:40;;;;;;;;;;;;;;;23.80;100.00;101387.88;5101382;28;19917;-56
2023/08/09 07:03:05;;;;;;;;;;;;;;;23.80;100.00;101387.06;5090462;28;20000;-52
2023/08/09 07:05:30;;;;;;;;;;;;;;;23.23;100.00;101389.66;5093058;28;19920;-53
2023/08/09 07:07:56;;;;;;;;;;;;;;;23.91;100.00;101389.53;5095508;28;19923;-57
2023/08/09 07:10:24;;;;;;;;;;;;;;;23.66;100.00;101394.97;5095234;28;19924;-57
2023/08/09 07:12:50;;;;;;;;;;;;;;;24.20;100.00;101402.66;5099290;28;19916;-53
2023/08/09 07:15:16;;;;;;;;;;;;;;;24.60;100.00;101397.44;5107164;28;19923;-56
2023/08/09 07:17:42;;;;;;;;;;;;;;;23.94;100.00;101395.53;5095201;28;19928;-55
2023/08/09 07:20:11;;;;;;;;;;;;;;;24.09;100.00;101398.31;5094879;28;19920;-53
2023/08/09 07:22:37;;;;;;;;;;;;;;;24.34;100.00;101394.75;5098625;28;19946;-51
2023/08/09 07:25:03;;;;;;;;;;;;;;;24.89;100.00;101398.72;5095110;28;19913;-55
2023/08/09 07:27:28;;;;;;;;;;;;;;;24.19;100.00;101403.75;5095166;28;20061;-56
2023/08/09 07:29:54;;;;;;;;;;;;;;;24.27;100.00;101404.31;5095196;28;19923;-55
2023/08/09 07:32:20;;;;;;;;;;;;;;;24.44;100.00;101406.75;5082859;28;19948;-56
2023/08/09 07:34:46;;;;;;;;;;;;;;;24.41;100.00;101402.63;5090489;28;19923;-57
2023/08/09 07:37:11;;;;;;;;;;;;;;;24.93;100.00;101405.28;5088068;28;19943;-53
2023/08/09 07:39:36;;;;;;;;;;;;;;;24.65;100.00;101412.16;5094880;28;19916;-55
2023/08/09 07:42:02;;;;;;;;;;;;;;;25.22;100.00;101414.72;5094874;28;19916;-57
2023/08/09 07:44:27;;;;;;;;;;;;;;;24.92;100.00;101414.59;5090860;28;19952;-57
2023/08/09 07:46:53;;;;;;;;;;;;;;;25.22;100.00;101414.72;5096378;28;19923;-55
2023/08/09 07:49:19;;;;;;;;;;;;;;;24.83;100.00;101418.97;5095060;28;19922;-56
2023/08/09 07:51:44;;;;;;;;;;;;;;;24.77;100.00;101412.69;5095030;28;19923;-57
2023/08/09 07:54:10;;;;;;;;;;;;;;;25.39;100.00;101419.88;5095388;28;19916;-56
2023/08/09 07:56:35;;;;;;;;;;;;;;;25.38;100.00;101424.50;5096751;28;19952;-58
2023/08/09 07:59:01;;;;;;;;;;;;;;;25.32;100.00;101431.91;5095056;28;19943;-58
2023/08/09 08:01:26;;;;;;;;;;;;;;;25.20;100.00;101429.50;5094986;28;20059;-53
2023/08/09 08:03:52;;;;;;;;;;;;;;;25.35;100.00;101430.53;5099948;28;19920;-55
2023/08/09 08:06:18;;;;;;;;;;;;;;;25.29;100.00;101435.22;5107289;28;19927;-57
2023/08/09 08:08:45;;;;;;;;;;;;;;;25.47;100.00;101432.97;5094966;28;19923;-53
2023/08/09 08:11:11;;;;;;;;;;;;;;;25.29;100.00;101440.69;5094645;28;19958;-58
2023/08/09 08:13:37;;;;;;;;;;;;;;;26.36;100.00;101438.66;5094872;28;19917;-54
2023/08/09 08:16:04;;;;;;;;;;;;;;;26.15;100.00;101445.13;5103154;28;19980;-58
2023/08/09 08:18:30;;;;;;;;;;;;;;;25.75;100.00;101449.78;5094772;28;19921;-52
2023/08/09 08:20:55;;;;;;;;;;;;;;;25.76;100.00;101454.16;5094638;28;19935;-55
2023/08/09 08:23:21;;;;;;;;;;;;;;;25.96;100.00;101460.59;5105185;28;19923;-55
2023/08/09 08:25:46;;;;;;;;;;;;;;;26.10;100.00;101458.03;5100213;28;19920;-57
2023/08/09 08:28:12;;;;;;;;;;;;;;;26.42;100.00;101456.72;5094293;28;19924;-54
2023/08/09 08:30:38;;;;;;;;;;;;;;;26.40;100.00;101457.00;5094655;28;20003;-54
2023/08/09 08:33:04;;;;;;;;;;;;;;;26.16;100.00;101465.09;5098654;28;19987;-53
2023/08/09 08:35:33;;;;;;;;;;;;;;;26.30;100.00;101463.38;5100958;28;19920;-54
2023/08/09 08:37:59;;;;;;;;;;;;;;;26.14;100.00;101465.41;5108252;28;19973;-56
2023/08/09 08:40:25;;;;;;;;;;;;;;;26.49;100.00;101470.91;5100388;28;19916;-55
2023/08/09 08:42:51;;;;;;;;;;;;;;;26.82;100.00;101481.28;5105171;28;19921;-57
2023/08/09 08:45:16;;;;;;;;;;;;;;;26.51;100.00;101474.16;5098316;28;19917;-55
2023/08/09 08:47:43;;;;;;;;;;;;;;;27.28;100.00;101478.03;5098432;28;19917;-58
2023/08/09 08:50:09;;;;;;;;;;;;;;;27.13;100.00;101481.78;5097894;28;19916;-59
2023/08/09 08:52:37;;;;;;;;;;;;;;;26.74;100.00;101479.97;5098245;28;19996;-57
2023/08/09 08:55:03;;;;;;;;;;;;;;;27.12;100.00;101487.56;5096348;28;19943;-58
2023/08/09 08:57:29;;;;;;;;;;;;;;;27.70;100.00;101483.03;5097834;28;19920;-56
2023/08/09 08:59:55;;;;;;;;;;;;;;;27.99;100.00;101484.78;5097902;28;19955;-56
2023/08/09 09:02:20;;;;;;;;;;;;;;;27.21;100.00;101483.03;5098133;28;19924;-58
2023/08/09 09:04:46;;;;;;;;;;;;;;;26.54;100.00;101490.03;5097969;28;19935;-56
2023/08/09 09:07:12;;;;;;;;;;;;;;;27.09;100.00;101490.91;5097915;28;19938;-57
2023/08/09 09:09:55;;;;;;;;;;;;;;;26.50;100.00;101497.22;5098013;28;19920;-52
2023/08/09 09:12:21;;;;;;;;;;;;;;;26.72;100.00;101498.66;5097752;28;19940;-55
2023/08/09 09:14:50;;;;;;;;;;;;;;;27.36;100.00;101489.47;5106382;28;19924;-56
2023/08/09 09:17:15;;;;;;;;;;;;;;;26.34;100.00;101489.13;5079898;28;19923;-56
2023/08/09 09:19:43;;;;;;;;;;;;;;;27.11;100.00;101483.19;5097394;28;19916;-54
2023/08/09 09:22:09;;;;;;;;;;;;;;;27.88;100.00;101497.84;5097298;28;19917;-55
2023/08/09 09:24:35;;;;;;;;;;;;;;;27.69;100.00;101492.38;5103726;28;19921;-57
2023/08/09 09:27:01;;;;;;;;;;;;;;;28.39;100.00;101495.44;5097451;28;19917;-59
2023/08/09 09:29:31;;;;;;;;;;;;;;;27.43;100.00;101503.66;5097637;28;19924;-53
2023/08/09 09:31:59;;;;;;;;;;;;;;;26.62;100.00;101499.56;5096942;28;19938;-55
2023/08/09 09:34:30;;;;;;;;;;;;;;;26.57;100.00;101494.94;5097421;28;19916;-56
2023/08/09 09:36:55;;;;;;;;;;;;;;;27.12;100.00;101490.31;5097186;28;19917;-56
2023/08/09 09:39:21;;;;;;;;;;;;;;;27.56;100.00;101489.22;5097287;28;19942;-55
2023/08/09 09:41:48;;;;;;;;;;;;;;;28.36;100.00;101499.59;5100751;28;19923;-56
2023/08/09 09:44:17;;;;;;;;;;;;;;;28.53;100.00;101493.53;5081235;28;19920;-55
2023/08/09 09:46:42;;;;;;;;;;;;;;;28.67;98.48;101488.06;5097721;28;19975;-56
2023/08/09 09:49:08;;;;;;;;;;;;;;;29.20;94.33;101491.47;5095417;28;19931;-55
2023/08/09 09:51:35;;;;;;;;;;;;;;;28.03;98.17;101485.81;5097331;28;19992;-54
2023/08/09 09:54:00;;;;;;;;;;;;;;;28.39;96.06;101496.25;5098944;28;19917;-58
2023/08/09 09:56:25;;;;;;;;;;;;;;;27.79;99.03;101483.97;5097056;28;19984;-52
2023/08/09 09:58:51;;;;;;;;;;;;;;;28.45;100.00;101495.06;5096905;28;20352;-56
2023/08/09 10:01:20;;;;;;;;;;;;;;;28.07;100.00;101483.28;5097049;28;19923;-51
2023/08/09 10:03:48;;;;;;;;;;;;;;;27.86;100.00;101487.16;5096664;28;19921;-54
2023/08/09 10:06:18;;;;;;;;;;;;;;;27.89;100.00;101485.75;5097259;28;19917;-54
2023/08/09 10:08:44;;;;;;;;;;;;;;;28.18;100.00;101491.09;5095325;28;19912;-53
2023/08/09 10:11:11;;;;;;;;;;;;;;;28.68;93.99;101503.47;5096499;28;19919;-57
2023/08/09 10:13:39;;;;;;;;;;;;;;;29.25;90.43;101507.09;5098424;28;19980;-55
2023/08/09 10:16:06;;;;;;;;;;;;;;;29.36;81.51;101518.72;5096911;28;19912;-53
2023/08/09 10:18:43;;;;;;;;;;;;;;;28.91;82.56;101514.63;5079146;28;19939;-52
2023/08/09 10:21:10;;;;;;;;;;;;;;;29.01;83.73;101514.41;5096306;28;19916;-53
2023/08/09 10:23:36;;;;;;;;;;;;;;;28.86;82.74;101521.03;5097061;28;19920;-57
2023/08/09 10:26:02;;;;;;;;;;;;;;;29.43;81.61;101519.13;5097469;28;19922;-54
2023/08/09 10:28:57;;;;;;;;;;;;;;;29.41;80.46;101526.88;5096546;28;19952;-54
2023/08/09 10:31:41;;;;;;;;;;;;;;;29.11;78.81;101520.88;5079572;28;19928;-57
2023/08/09 10:34:07;;;;;;;;;;;;;;;29.82;75.49;101517.72;5098698;28;19947;-57
2023/08/09 10:36:33;;;;;;;;;;;;;;;29.60;77.69;101527.59;5106587;28;19927;-56
2023/08/09 10:39:07;;;;;;;;;;;;;;;28.59;83.31;101524.50;5097213;28;19955;-57
2023/08/09 10:41:32;;;;;;;;;;;;;;;28.47;82.89;101519.50;5099761;28;19934;-53
2023/08/09 10:44:01;;;;;;;;;;;;;;;28.84;87.73;101526.03;5097085;28;19925;-57
2023/08/09 10:46:27;;;;;;;;;;;;;;;28.76;80.84;101522.00;5090124;28;19926;-54
2023/08/09 10:48:59;;;;;;;;;;;;;;;29.72;75.35;101521.53;5084958;28;19917;-53
2023/08/09 10:51:24;;;;;;;;;;;;;;;29.95;73.53;101524.31;5093148;28;19927;-52
2023/08/09 10:54:04;;;;;;;;;;;;;;;29.92;72.44;101522.19;5095279;28;19917;-54
2023/08/09 10:56:34;;;;;;;;;;;;;;;30.31;71.32;101514.41;5094750;28;19935;-55
2023/08/09 10:59:06;;;;;;;;;;;;;;;29.94;73.24;101516.34;5095655;28;19927;-56
2023/08/09 11:01:36;;;;;;;;;;;;;;;29.65;70.52;101525.84;5095295;28;19923;-55
2023/08/09 11:04:04;;;;;;;;;;;;;;;29.41;73.46;101522.22;5095873;28;20007;-58
2023/08/09 11:06:37;;;;;;;;;;;;;;;29.73;70.38;101538.88;5099446;28;20166;-57
2023/08/09 11:09:09;;;;;;;;;;;;;;;28.50;75.93;101532.66;5092644;28;19983;-54
2023/08/09 11:11:35;;;;;;;;;;;;;;;29.00;77.85;101526.56;5091333;28;19939;-53
2023/08/09 11:14:01;;;;;;;;;;;;;;;28.86;75.70;101531.25;5095245;28;19928;-58
2023/08/09 11:16:34;;;;;;;;;;;;;;;31.50;65.61;101541.59;5110622;28;19942;-55
2023/08/09 11:19:16;;;;;;;;;;;;;;;31.21;62.15;101537.47;5115340;28;19921;-55
2023/08/09 11:21:42;;;;;;;;;;;;;;;31.28;61.33;101537.00;5101940;28;19927;-56
2023/08/09 11:24:11;;;;;;;;;;;;;;;30.55;64.37;101530.59;5111710;28;19916;-53
2023/08/09 11:26:38;;;;;;;;;;;;;;;31.73;59.09;101534.00;5111967;28;19942;-55
2023/08/09 11:29:05;;;;;;;;;;;;;;;33.78;51.72;101542.22;5102312;28;19916;-57
2023/08/09 11:31:39;;;;;;;;;;;;;;;33.85;48.83;101550.00;5112250;28;19919;-56
2023/08/09 11:34:05;;;;;;;;;;;;;;;34.91;46.93;101546.19;5112144;28;19946;-57
2023/08/09 11:36:30;;;;;;;;;;;;;;;33.20;47.91;101545.47;5111635;28;19913;-56
2023/08/09 11:38:59;;;;;;;;;;;;;;;32.52;53.32;101543.41;5112028;28;19920;-57
2023/08/09 11:41:26;;;;;;;;;;;;;;;31.85;54.46;101555.50;5109829;28;19987;-57
2023/08/09 11:43:52;;;;;;;;;;;;;;;30.93;59.92;101551.47;5109818;28;19916;-57
2023/08/09 11:46:23;;;;;;;;;;;;;;;31.43;57.56;101555.09;5111809;28;19950;-55
2023/08/09 11:48:53;;;;;;;;;;;;;;;32.52;53.43;101562.78;5121522;28;19917;-57
2023/08/09 11:51:19;;;;;;;;;;;;;;;33.26;50.59;101558.03;5111642;28;19917;-58
2023/08/09 11:53:49;;;;;;;;;;;;;;;34.66;46.82;101560.03;5111791;28;19923;-56
2023/08/09 11:56:18;;;;;;;;;;;;;;;37.43;43.73;101565.59;5107218;28;19987;-57
2023/08/09 11:58:44;;;;;;;;;;;;;;;37.06;41.58;101563.16;5111495;28;19943;-57
2023/08/09 12:01:18;;;;;;;;;;;;;;;36.72;38.60;101574.63;5118675;28;19912;-59
2023/08/09 12:03:45;;;;;;;;;;;;;;;36.23;40.21;101574.91;5111698;28;19980;-59
2023/08/09 12:06:11;;;;;;;;;;;;;;;35.76;39.40;101579.06;5116870;28;19945;-59
2023/08/09 12:08:37;;;;;;;;;;;;;;;33.23;42.08;101582.81;5111833;28;19956;-57
2023/08/09 12:11:03;;;;;;;;;;;;;;;36.44;40.75;101594.16;5102712;28;19921;-59
2023/08/09 12:13:28;;;;;;;;;;;;;;;36.70;37.77;101593.69;5105913;28;19955;-58
2023/08/09 12:15:54;;;;;;;;;;;;;;;35.94;36.98;101599.06;5126963;28;19924;-58
2023/08/09 12:18:20;;;;;;;;;;;;;;;36.89;36.83;101600.50;5130945;28;19958;-59
2023/08/09 12:20:46;;;;;;;;;;;;;;;37.90;35.84;101610.47;5115814;28;19920;-59
2023/08/09 12:23:11;;;;;;;;;;;;;;;38.49;34.83;101601.28;5122124;28;19955;-59
2023/08/09 12:25:37;;;;;;;;;;;;;;;39.18;34.00;101608.09;5123601;28;19923;-58
2023/08/09 12:28:03;;;;;;;;;;;;;;;35.44;40.56;101583.28;5126420;28;19916;-58